createdAt,value
2019-05-12T00:00:12.866Z,9.60
2019-05-12T00:02:48.469Z,9.60
2019-05-12T00:05:21.961Z,9.60
2019-05-12T00:07:55.856Z,9.60
2019-05-12T00:10:29.689Z,9.60
2019-05-12T00:13:03.399Z,9.60
2019-05-12T00:15:38.519Z,9.60
2019-05-12T00:18:12.601Z,9.70
2019-05-12T00:20:47.679Z,9.60
2019-05-12T00:23:26.886Z,9.60
2019-05-12T00:25:58.746Z,9.60
2019-05-12T00:28:32.409Z,9.50
2019-05-12T00:31:08.244Z,9.50
2019-05-12T00:33:41.663Z,9.40
2019-05-12T00:36:15.414Z,9.40
2019-05-12T00:38:49.306Z,9.40
2019-05-12T00:41:22.990Z,9.30
2019-05-12T00:43:58.252Z,9.30
2019-05-12T00:46:32.079Z,9.30
2019-05-12T00:49:07.972Z,9.20
2019-05-12T00:51:41.290Z,9.20
2019-05-12T00:54:15.018Z,9.20
2019-05-12T00:56:48.891Z,9.20
2019-05-12T00:59:22.631Z,9.20
2019-05-12T01:01:58.498Z,9.10
2019-05-12T01:04:31.748Z,9.10
2019-05-12T01:07:05.569Z,9.10
2019-05-12T01:09:39.586Z,9.10
2019-05-12T01:12:13.435Z,9.00
2019-05-12T01:14:47.793Z,9.00
2019-05-12T01:17:21.746Z,9.00
2019-05-12T01:19:58.296Z,9.00
2019-05-12T01:22:31.085Z,9.00
2019-05-12T01:25:08.352Z,9.00
2019-05-12T01:27:41.330Z,9.00
2019-05-12T01:30:17.932Z,8.90
2019-05-12T01:32:51.099Z,8.90
2019-05-12T01:35:24.819Z,8.90
2019-05-12T01:38:01.480Z,9.00
2019-05-12T01:40:34.165Z,8.90
2019-05-12T01:43:08.858Z,8.90
2019-05-12T01:45:43.101Z,8.90
2019-05-12T01:48:18.322Z,8.90
2019-05-12T01:50:52.388Z,8.90
2019-05-12T01:53:28.493Z,8.80
2019-05-12T01:56:01.920Z,8.80
2019-05-12T01:58:38.034Z,8.80
2019-05-12T02:01:11.188Z,8.80
2019-05-12T02:03:45.007Z,8.80
2019-05-12T02:06:18.712Z,8.80
2019-05-12T02:08:52.468Z,8.80
2019-05-12T02:11:28.711Z,8.80
2019-05-12T02:14:04.455Z,8.80
2019-05-12T02:16:38.842Z,8.80
2019-05-12T02:19:12.938Z,8.80
2019-05-12T02:21:48.753Z,8.80
2019-05-12T02:24:27.024Z,8.80
2019-05-12T02:26:58.203Z,8.80
2019-05-12T02:29:31.839Z,8.90
2019-05-12T02:32:05.955Z,8.90
2019-05-12T02:34:39.928Z,8.90
2019-05-12T02:37:15.310Z,8.90
2019-05-12T02:39:49.290Z,8.90
2019-05-12T02:42:24.379Z,8.90
2019-05-12T02:44:58.454Z,8.90
2019-05-12T02:47:34.672Z,9.00
2019-05-12T02:50:08.151Z,9.00
2019-05-12T02:52:44.273Z,9.00
2019-05-12T02:55:17.743Z,9.00
2019-05-12T02:57:55.079Z,9.00
2019-05-12T03:00:29.805Z,9.00
2019-05-12T03:03:05.707Z,9.00
2019-05-12T03:05:40.733Z,9.00
2019-05-12T03:08:15.316Z,9.00
2019-05-12T03:10:54.638Z,9.00
2019-05-12T03:13:27.174Z,8.90
2019-05-12T03:16:04.539Z,8.90
2019-05-12T03:18:36.416Z,8.90
2019-05-12T03:21:10.362Z,8.80
2019-05-12T03:23:44.889Z,8.80
2019-05-12T03:26:19.175Z,8.80
2019-05-12T03:28:55.506Z,8.80
2019-05-12T03:31:31.415Z,8.70
2019-05-12T03:34:09.393Z,8.70
2019-05-12T03:36:42.917Z,8.70
2019-05-12T03:39:15.131Z,8.60
2019-05-12T03:41:49.099Z,8.60
2019-05-12T03:44:25.234Z,8.60
2019-05-12T03:46:58.441Z,8.50
2019-05-12T03:49:34.803Z,8.50
2019-05-12T03:52:07.526Z,8.50
2019-05-12T03:54:41.352Z,8.50
2019-05-12T03:57:15.280Z,8.40
2019-05-12T03:59:49.163Z,8.40
2019-05-12T04:02:25.115Z,8.40
2019-05-12T04:04:58.449Z,8.40
2019-05-12T04:07:34.464Z,8.40
2019-05-12T04:10:07.751Z,8.40
2019-05-12T04:12:44.620Z,8.40
2019-05-12T04:15:17.497Z,8.40
2019-05-12T04:17:54.103Z,8.30
2019-05-12T04:20:26.482Z,8.40
2019-05-12T04:23:00.230Z,8.40
2019-05-12T04:25:47.670Z,8.40
2019-05-12T04:28:09.304Z,8.40
2019-05-12T04:30:44.516Z,8.50
2019-05-12T04:33:18.557Z,8.50
2019-05-12T04:35:55.182Z,8.60
2019-05-12T04:38:27.646Z,8.60
2019-05-12T04:41:01.393Z,8.80
2019-05-12T04:43:35.409Z,8.90
2019-05-12T04:46:09.275Z,9.00
2019-05-12T04:48:45.247Z,9.20
2019-05-12T04:51:18.360Z,9.40
2019-05-12T04:53:54.906Z,9.60
2019-05-12T04:56:27.980Z,9.80
2019-05-12T04:59:04.720Z,10.20
2019-05-12T05:01:37.020Z,10.50
2019-05-12T05:04:10.723Z,10.70
2019-05-12T05:06:45.026Z,11.00
2019-05-12T05:09:18.978Z,11.30
2019-05-12T05:11:54.340Z,11.70
2019-05-12T05:14:28.195Z,12.10
2019-05-12T05:17:05.088Z,12.70
2019-05-12T05:19:37.265Z,13.20
2019-05-12T05:22:13.578Z,13.70
2019-05-12T05:24:46.456Z,14.20
2019-05-12T05:27:24.663Z,14.60
2019-05-12T05:29:58.120Z,15.10
2019-05-12T05:32:33.914Z,15.60
2019-05-12T05:35:07.846Z,16.10
2019-05-12T05:37:44.093Z,16.50
2019-05-12T05:40:19.877Z,17.00
2019-05-12T05:42:54.266Z,17.30
2019-05-12T05:45:28.108Z,17.50
2019-05-12T05:48:05.584Z,17.80
2019-05-12T05:50:37.302Z,18.00
2019-05-12T05:53:17.531Z,18.30
2019-05-12T05:55:50.455Z,18.50
2019-05-12T05:58:25.907Z,18.50
2019-05-12T06:01:03.127Z,18.50
2019-05-12T06:03:33.907Z,18.30
2019-05-12T06:06:12.164Z,18.10
2019-05-12T06:08:44.282Z,18.00
2019-05-12T06:11:26.505Z,18.00
2019-05-12T06:13:53.630Z,18.10
2019-05-12T06:16:27.365Z,18.20
2019-05-12T06:19:03.302Z,18.50
2019-05-12T06:21:38.349Z,18.80
2019-05-12T06:24:15.311Z,19.20
2019-05-12T06:26:59.921Z,19.50
2019-05-12T06:29:24.919Z,19.90
2019-05-12T06:32:00.089Z,20.20
2019-05-12T06:34:34.276Z,20.40
2019-05-12T06:37:11.824Z,20.50
2019-05-12T06:39:43.630Z,20.30
2019-05-12T06:42:17.423Z,20.00
2019-05-12T06:44:55.028Z,19.70
2019-05-12T06:47:26.552Z,19.40
2019-05-12T06:50:00.228Z,19.00
2019-05-12T06:52:38.489Z,18.60
2019-05-12T06:55:09.209Z,18.40
2019-05-12T06:57:45.943Z,18.50
2019-05-12T07:00:22.240Z,18.70
2019-05-12T07:02:55.349Z,18.90
2019-05-12T07:05:33.769Z,19.00
2019-05-12T07:08:04.950Z,19.00
2019-05-12T07:10:43.395Z,19.00
2019-05-12T07:13:22.820Z,19.10
2019-05-12T07:15:49.493Z,19.30
2019-05-12T07:18:31.739Z,19.60
2019-05-12T07:20:58.630Z,20.00
2019-05-12T07:23:33.735Z,20.40
2019-05-12T07:26:17.588Z,20.90
2019-05-12T07:28:43.410Z,21.30
2019-05-12T07:31:17.704Z,21.70
2019-05-12T07:33:54.183Z,22.10
2019-05-12T07:36:28.481Z,22.40
2019-05-12T07:39:06.203Z,22.80
2019-05-12T07:41:42.311Z,23.00
2019-05-12T07:44:21.990Z,23.10
2019-05-12T07:46:54.294Z,23.10
2019-05-12T07:49:34.290Z,23.00
2019-05-12T07:52:03.767Z,22.90
2019-05-12T07:54:39.485Z,22.90
2019-05-12T07:57:17.402Z,22.90
2019-05-12T07:59:48.429Z,22.80
2019-05-12T08:02:23.209Z,22.70
2019-05-12T08:04:57.427Z,22.50
2019-05-12T08:07:31.083Z,22.20
2019-05-12T08:10:07.154Z,21.90
2019-05-12T08:12:41.320Z,21.50
2019-05-12T08:15:15.493Z,21.10
2019-05-12T08:17:49.263Z,20.70
2019-05-12T08:20:24.462Z,20.40
2019-05-12T08:23:05.880Z,20.30
2019-05-12T08:25:36.930Z,20.40
2019-05-12T08:28:15.465Z,20.70
2019-05-12T08:30:52.021Z,21.00
2019-05-12T08:33:23.863Z,21.40
2019-05-12T08:36:05.512Z,21.70
2019-05-12T08:38:33.699Z,21.80
2019-05-12T08:41:07.463Z,21.70
2019-05-12T08:43:48.118Z,21.50
2019-05-12T08:46:16.775Z,21.30
2019-05-12T08:48:51.638Z,21.10
2019-05-12T08:51:26.224Z,20.90
2019-05-12T08:54:07.669Z,20.70
2019-05-12T08:56:35.399Z,20.60
2019-05-12T08:59:09.694Z,20.50
2019-05-12T09:01:44.553Z,20.40
2019-05-12T09:04:18.516Z,20.20
2019-05-12T09:06:56.395Z,20.20
2019-05-12T09:09:28.718Z,20.20
2019-05-12T09:12:03.611Z,20.50
2019-05-12T09:14:41.395Z,20.70
2019-05-12T09:17:23.231Z,21.10
2019-05-12T09:20:17.002Z,21.60
2019-05-12T09:23:13.449Z,22.10
2019-05-12T09:26:04.856Z,22.60
2019-05-12T09:28:47.357Z,23.10
2019-05-12T09:31:19.519Z,23.50
2019-05-12T09:33:54.564Z,24.00
2019-05-12T09:36:27.605Z,24.30
2019-05-12T09:39:02.072Z,24.60
2019-05-12T09:41:42.766Z,24.70
2019-05-12T09:44:13.371Z,24.70
2019-05-12T09:46:47.265Z,24.70
2019-05-12T09:49:22.773Z,24.80
2019-05-12T09:51:56.463Z,24.90
2019-05-12T09:54:35.540Z,25.10
2019-05-12T09:57:05.664Z,25.10
2019-05-12T09:59:39.464Z,25.10
2019-05-12T10:02:16.537Z,24.90
2019-05-12T10:04:50.240Z,24.80
2019-05-12T10:07:24.135Z,24.70
2019-05-12T10:09:59.214Z,24.70
2019-05-12T10:12:38.648Z,24.50
2019-05-12T10:15:10.069Z,24.30
2019-05-12T10:17:43.848Z,24.10
2019-05-12T10:20:17.809Z,24.00
2019-05-12T10:22:54.152Z,23.90
2019-05-12T10:25:28.377Z,23.90
2019-05-12T10:28:11.062Z,24.00
2019-05-12T10:30:38.118Z,24.10
2019-05-12T10:33:13.783Z,24.20
2019-05-12T10:35:47.276Z,24.30
2019-05-12T10:38:21.049Z,24.50
2019-05-12T10:40:54.790Z,24.70
2019-05-12T10:43:28.530Z,24.80
2019-05-12T10:46:04.188Z,24.90
2019-05-12T10:48:37.673Z,25.00
2019-05-12T10:51:11.429Z,25.20
2019-05-12T10:53:48.791Z,25.40
2019-05-12T10:56:20.560Z,25.40
2019-05-12T10:58:54.382Z,25.30
2019-05-12T11:01:28.170Z,25.30
2019-05-12T11:04:03.860Z,25.30
2019-05-12T11:06:39.763Z,25.20
2019-05-12T11:09:14.065Z,25.20
2019-05-12T11:11:48.032Z,25.20
2019-05-12T11:14:26.310Z,25.30
2019-05-12T11:16:57.112Z,25.40
2019-05-12T11:19:30.891Z,25.50
2019-05-12T11:22:04.545Z,25.60
2019-05-12T11:24:38.471Z,25.60
2019-05-12T11:27:13.461Z,25.60
2019-05-12T11:29:49.609Z,25.50
2019-05-12T11:32:23.289Z,25.40
2019-05-12T11:34:57.117Z,25.40
2019-05-12T11:37:30.898Z,25.40
2019-05-12T11:40:05.021Z,25.30
2019-05-12T11:42:38.817Z,25.20
2019-05-12T11:45:13.621Z,25.10
2019-05-12T11:47:47.997Z,25.10
2019-05-12T11:50:21.969Z,25.00
2019-05-12T11:52:55.720Z,24.90
2019-05-12T11:55:31.782Z,24.90
2019-05-12T11:58:11.225Z,24.90
2019-05-12T12:00:40.550Z,24.90
2019-05-12T12:03:17.886Z,24.90
2019-05-12T12:05:49.740Z,24.70
2019-05-12T12:08:26.256Z,24.60
2019-05-12T12:10:58.878Z,24.50
2019-05-12T12:13:33.675Z,24.50
2019-05-12T12:16:11.120Z,24.50
2019-05-12T12:18:46.680Z,24.40
2019-05-12T12:21:18.458Z,24.30
2019-05-12T12:23:53.451Z,24.20
2019-05-12T12:26:30.292Z,24.20
2019-05-12T12:29:03.376Z,24.10
2019-05-12T12:31:38.785Z,24.00
2019-05-12T12:34:17.165Z,23.90
2019-05-12T12:36:48.266Z,23.80
2019-05-12T12:39:23.753Z,23.70
2019-05-12T12:42:00.398Z,23.60
2019-05-12T12:44:34.144Z,23.50
2019-05-12T12:47:08.277Z,23.40
2019-05-12T12:49:45.325Z,23.20
2019-05-12T12:52:17.838Z,23.00
2019-05-12T12:54:51.616Z,22.80
2019-05-12T12:57:25.437Z,22.70
2019-05-12T12:59:59.218Z,22.60
2019-05-12T13:02:33.858Z,22.60
2019-05-12T13:05:07.982Z,22.50
2019-05-12T13:07:43.870Z,22.60
2019-05-12T13:10:17.396Z,22.60
2019-05-12T13:12:56.545Z,22.60
2019-05-12T13:15:26.787Z,22.70
2019-05-12T13:18:00.499Z,22.70
2019-05-12T13:20:34.425Z,22.60
2019-05-12T13:23:08.260Z,22.50
2019-05-12T13:25:50.085Z,22.50
2019-05-12T13:28:18.968Z,22.50
2019-05-12T13:31:06.822Z,22.40
2019-05-12T13:33:28.918Z,22.40
2019-05-12T13:36:04.281Z,22.30
2019-05-12T13:38:40.398Z,22.20
2019-05-12T13:41:18.147Z,22.20
2019-05-12T13:43:54.466Z,22.10
2019-05-12T13:46:25.097Z,22.10
2019-05-12T13:48:59.947Z,22.10
2019-05-12T13:51:33.873Z,22.00
2019-05-12T13:54:07.696Z,22.00
2019-05-12T13:56:44.091Z,22.00
2019-05-12T13:59:20.978Z,21.90
2019-05-12T14:01:53.917Z,21.90
2019-05-12T14:04:29.408Z,21.90
2019-05-12T14:07:03.944Z,21.90
2019-05-12T14:09:38.068Z,21.90
2019-05-12T14:12:13.557Z,21.90
2019-05-12T14:14:47.331Z,21.90
2019-05-12T14:17:23.386Z,21.90
2019-05-12T14:19:56.548Z,21.90
2019-05-12T14:22:30.348Z,21.80
2019-05-12T14:25:05.565Z,21.80
2019-05-12T14:27:39.535Z,21.70
2019-05-12T14:30:14.796Z,21.50
2019-05-12T14:32:52.525Z,21.40
2019-05-12T14:35:24.177Z,21.30
2019-05-12T14:37:57.978Z,21.10
2019-05-12T14:40:31.942Z,21.00
2019-05-12T14:43:10.477Z,20.90
2019-05-12T14:45:43.860Z,20.80
2019-05-12T14:48:16.854Z,20.70
2019-05-12T14:50:50.658Z,20.60
2019-05-12T14:53:24.504Z,20.60
2019-05-12T14:55:58.308Z,20.50
2019-05-12T14:58:33.831Z,20.50
2019-05-12T15:01:07.528Z,20.50
2019-05-12T15:03:47.144Z,20.40
2019-05-12T15:06:19.391Z,20.40
2019-05-12T15:08:56.193Z,20.40
2019-05-12T15:11:29.993Z,20.30
2019-05-12T15:14:04.312Z,20.20
2019-05-12T15:16:40.704Z,20.10
2019-05-12T15:19:14.062Z,20.10
2019-05-12T15:21:47.859Z,20.00
2019-05-12T15:24:21.722Z,20.00
2019-05-12T15:26:57.531Z,20.10
2019-05-12T15:29:30.891Z,20.10
2019-05-12T15:32:04.661Z,20.00
2019-05-12T15:34:38.422Z,20.00
2019-05-12T15:37:12.238Z,20.00
2019-05-12T15:39:46.059Z,19.90
2019-05-12T15:42:19.818Z,19.90
2019-05-12T15:44:53.803Z,19.90
2019-05-12T15:47:30.026Z,19.90
2019-05-12T15:50:04.019Z,19.90
2019-05-12T15:52:42.029Z,19.80
2019-05-12T15:55:13.873Z,19.80
2019-05-12T15:57:47.729Z,19.80
2019-05-12T16:00:24.134Z,19.80
2019-05-12T16:02:57.076Z,19.70
2019-05-12T16:05:31.222Z,19.70
2019-05-12T16:08:05.117Z,19.70
2019-05-12T16:10:38.941Z,19.60
2019-05-12T16:13:15.519Z,19.60
2019-05-12T16:15:49.282Z,19.50
2019-05-12T16:18:26.709Z,19.50
2019-05-12T16:21:04.437Z,19.40
2019-05-12T16:23:34.474Z,19.40
2019-05-12T16:26:12.572Z,19.40
2019-05-12T16:28:44.130Z,19.30
2019-05-12T16:31:18.055Z,19.20
2019-05-12T16:33:52.942Z,19.20
2019-05-12T16:36:27.307Z,19.10
2019-05-12T16:39:01.108Z,19.00
2019-05-12T16:41:35.029Z,19.00
2019-05-12T16:44:17.324Z,18.90
2019-05-12T16:46:44.558Z,18.80
2019-05-12T16:49:18.410Z,18.70
2019-05-12T16:51:54.210Z,18.70
2019-05-12T16:54:27.804Z,18.60
2019-05-12T16:57:06.353Z,18.60
2019-05-12T16:59:36.936Z,18.60
2019-05-12T17:02:10.778Z,18.50
2019-05-12T17:04:44.499Z,18.50
2019-05-12T17:07:20.790Z,18.40
2019-05-12T17:09:54.354Z,18.40
2019-05-12T17:12:31.907Z,18.30
2019-05-12T17:15:04.209Z,18.20
2019-05-12T17:17:38.463Z,18.10
2019-05-12T17:20:13.916Z,18.00
2019-05-12T17:22:54.410Z,18.00
2019-05-12T17:25:24.852Z,17.90
2019-05-12T17:28:03.799Z,17.80
2019-05-12T17:30:34.494Z,17.80
2019-05-12T17:33:13.405Z,17.80
2019-05-12T17:35:44.662Z,17.70
2019-05-12T17:38:20.322Z,17.60
2019-05-12T17:40:58.941Z,17.60
2019-05-12T17:43:30.817Z,17.50
2019-05-12T17:46:04.739Z,17.50
2019-05-12T17:48:42.702Z,17.40
2019-05-12T17:51:14.047Z,17.40
2019-05-12T17:53:47.727Z,17.40
2019-05-12T17:56:25.288Z,17.30
2019-05-12T17:58:56.968Z,17.20
2019-05-12T18:01:31.603Z,17.20
2019-05-12T18:04:06.227Z,17.10
2019-05-12T18:06:39.968Z,17.10
2019-05-12T18:09:15.656Z,17.00
2019-05-12T18:11:54.277Z,17.00
2019-05-12T18:14:27.811Z,16.90
2019-05-12T18:17:03.938Z,16.90
2019-05-12T18:19:35.806Z,16.80
2019-05-12T18:22:09.607Z,16.70
2019-05-12T18:24:49.291Z,16.70
2019-05-12T18:27:18.907Z,16.60
2019-05-12T18:29:53.641Z,16.60
2019-05-12T18:32:27.710Z,16.50
2019-05-12T18:35:04.038Z,16.50
2019-05-12T18:37:36.968Z,16.40
2019-05-12T18:40:10.920Z,16.30
2019-05-12T18:42:45.028Z,16.20
2019-05-12T18:45:18.888Z,16.10
2019-05-12T18:47:53.886Z,16.00
2019-05-12T18:50:31.462Z,15.90
2019-05-12T18:53:03.468Z,15.80
2019-05-12T18:55:40.408Z,15.70
2019-05-12T18:58:14.866Z,15.60
2019-05-12T19:00:48.237Z,15.50
2019-05-12T19:03:21.938Z,15.40
2019-05-12T19:05:58.145Z,15.30
2019-05-12T19:08:31.159Z,15.20
2019-05-12T19:11:19.009Z,15.10
2019-05-12T19:13:43.158Z,15.00
2019-05-12T19:16:16.160Z,14.90
2019-05-12T19:18:49.884Z,14.70
2019-05-12T19:21:23.824Z,14.60
2019-05-12T19:23:57.659Z,14.50
2019-05-12T19:26:32.883Z,14.50
2019-05-12T19:29:06.977Z,14.40
2019-05-12T19:31:42.414Z,14.20
2019-05-12T19:34:22.437Z,14.20
2019-05-12T19:36:51.679Z,14.10
2019-05-12T19:39:25.581Z,14.00
2019-05-12T19:41:59.599Z,13.90
2019-05-12T19:44:34.273Z,13.80
2019-05-12T19:47:08.739Z,13.70
2019-05-12T19:49:47.961Z,13.60
2019-05-12T19:52:19.426Z,13.50
2019-05-12T19:54:53.533Z,13.40
2019-05-12T19:57:27.329Z,13.30
2019-05-12T20:00:01.405Z,13.20
2019-05-12T20:02:35.159Z,13.10
2019-05-12T20:05:09.238Z,13.00
2019-05-12T20:07:44.583Z,12.90
2019-05-12T20:10:18.759Z,12.80
2019-05-12T20:12:54.868Z,12.80
2019-05-12T20:15:30.233Z,12.70
2019-05-12T20:18:04.398Z,12.60
2019-05-12T20:20:41.687Z,12.50
2019-05-12T20:23:14.301Z,12.50
2019-05-12T20:25:48.083Z,12.40
2019-05-12T20:28:24.183Z,12.30
2019-05-12T20:31:02.747Z,12.20
2019-05-12T20:33:34.415Z,12.10
2019-05-12T20:36:08.351Z,12.10
2019-05-12T20:38:44.208Z,12.00
2019-05-12T20:41:22.603Z,11.90
2019-05-12T20:43:52.721Z,11.80
2019-05-12T20:46:26.354Z,11.70
2019-05-12T20:49:01.080Z,11.70
2019-05-12T20:51:35.329Z,11.60
2019-05-12T20:54:14.003Z,11.50
2019-05-12T20:56:44.381Z,11.50
2019-05-12T20:59:22.027Z,11.40
2019-05-12T21:01:53.618Z,11.40
2019-05-12T21:04:33.330Z,11.30
2019-05-12T21:07:04.619Z,11.30
2019-05-12T21:09:38.332Z,11.20
2019-05-12T21:12:13.828Z,11.20
2019-05-12T21:14:51.581Z,11.10
2019-05-12T21:17:38.960Z,11.10
2019-05-12T21:19:59.470Z,11.00
2019-05-12T21:22:34.158Z,11.00
2019-05-12T21:25:10.467Z,10.90
2019-05-12T21:27:47.673Z,10.90
2019-05-12T21:30:19.583Z,10.80
2019-05-12T21:33:01.155Z,10.80
2019-05-12T21:35:32.084Z,10.60
2019-05-12T21:38:04.449Z,10.60
2019-05-12T21:40:38.140Z,10.60
2019-05-12T21:43:13.510Z,10.60
2019-05-12T21:45:47.572Z,10.50
2019-05-12T21:48:28.641Z,10.50
2019-05-12T21:50:56.620Z,10.40
2019-05-12T21:53:30.293Z,10.40
2019-05-12T21:56:05.554Z,10.40
2019-05-12T21:58:45.324Z,10.30
2019-05-12T22:01:15.851Z,10.20
2019-05-12T22:03:57.981Z,10.20
2019-05-12T22:06:25.148Z,10.10
2019-05-12T22:09:01.157Z,10.10
2019-05-12T22:11:34.858Z,10.10
2019-05-12T22:14:08.704Z,10.00
2019-05-12T22:16:44.320Z,10.00
2019-05-12T22:19:17.921Z,10.00
2019-05-12T22:21:53.685Z,9.90
2019-05-12T22:24:33.976Z,9.90
2019-05-12T22:27:05.027Z,9.90
2019-05-12T22:29:38.220Z,9.80
2019-05-12T22:32:13.686Z,9.80
2019-05-12T22:34:47.264Z,9.80
2019-05-12T22:37:20.967Z,9.80
2019-05-12T22:39:54.834Z,9.70
2019-05-12T22:42:28.678Z,9.60
2019-05-12T22:45:03.823Z,9.60
2019-05-12T22:47:38.084Z,9.60
2019-05-12T22:50:13.629Z,9.50
2019-05-12T22:52:49.370Z,9.50
2019-05-12T22:55:27.822Z,9.50
2019-05-12T22:57:58.468Z,9.40
2019-05-12T23:00:34.218Z,9.40
2019-05-12T23:03:11.638Z,9.40
2019-05-12T23:05:43.245Z,9.30
2019-05-12T23:08:17.097Z,9.30
2019-05-12T23:10:53.139Z,9.30
2019-05-12T23:13:26.248Z,9.20
2019-05-12T23:15:59.982Z,9.20
2019-05-12T23:18:33.911Z,9.20
2019-05-12T23:21:13.272Z,9.10
2019-05-12T23:23:43.561Z,9.10
2019-05-12T23:26:17.316Z,9.10
2019-05-12T23:28:53.348Z,9.10
2019-05-12T23:31:30.099Z,9.00
2019-05-12T23:34:06.276Z,9.00
2019-05-12T23:36:39.217Z,8.90
2019-05-12T23:39:14.268Z,8.90
2019-05-12T23:41:47.962Z,8.90
2019-05-12T23:44:23.918Z,8.90
2019-05-12T23:46:57.556Z,8.80
2019-05-12T23:49:33.109Z,8.70
2019-05-12T23:52:06.767Z,8.70
2019-05-12T23:54:40.666Z,8.70
2019-05-12T23:57:15.721Z,8.70
2019-05-12T23:59:49.643Z,8.60
